METAR Data
IDs: Format: Raw Decoded Include TAF

Data at: 1909 UTC 25 Oct 2021

EDDH 251850Z 20006KT 9999 BKN021 12/08 Q1016 NOSIG